createdAt,value
2022-10-14T00:00:48.562Z,100347.75
2022-10-14T00:01:43.632Z,100366.63
2022-10-14T00:02:17.713Z,100359.66
2022-10-14T00:03:04.546Z,100372.78
2022-10-14T00:03:38.618Z,100353.63
2022-10-14T00:04:25.541Z,100345.19
2022-10-14T00:04:59.651Z,100366.13
2022-10-14T00:05:47.557Z,100364.19
2022-10-14T00:06:25.645Z,100361.59
2022-10-14T00:07:05.580Z,100354.50
2022-10-14T00:07:46.629Z,100359.31
2022-10-14T00:08:27.540Z,100368.50
2022-10-14T00:09:13.608Z,100368.34
2022-10-14T00:09:53.538Z,100362.97
2022-10-14T00:10:33.615Z,100357.56
2022-10-14T00:11:17.575Z,100355.84
2022-10-14T00:11:57.658Z,100369.81
2022-10-14T00:12:38.581Z,100360.75
2022-10-14T00:13:18.679Z,100349.38
2022-10-14T00:14:09.546Z,100363.22
2022-10-14T00:14:49.613Z,100356.81
2022-10-14T00:15:29.553Z,100357.69
2022-10-14T00:16:11.601Z,100346.53
2022-10-14T00:16:54.539Z,100336.81
2022-10-14T00:17:34.676Z,100345.69
2022-10-14T00:18:15.581Z,100342.22
2022-10-14T00:18:56.619Z,100341.38
2022-10-14T00:19:37.544Z,100353.88
2022-10-14T00:20:17.601Z,100351.56
2022-10-14T00:21:07.536Z,100347.75
2022-10-14T00:21:50.603Z,100351.19
2022-10-14T00:22:31.528Z,100341.25
2022-10-14T00:23:11.595Z,100348.69
2022-10-14T00:23:52.547Z,100347.97
2022-10-14T00:24:32.638Z,100349.78
2022-10-14T00:25:13.536Z,100347.00
2022-10-14T00:25:53.602Z,100342.34
2022-10-14T00:26:39.550Z,100350.69
2022-10-14T00:27:19.796Z,100338.16
2022-10-14T00:28:00.529Z,100334.72
2022-10-14T00:28:40.672Z,100340.59
2022-10-14T00:29:25.569Z,100327.84
2022-10-14T00:30:05.593Z,100346.84
2022-10-14T00:30:46.537Z,100356.28
2022-10-14T00:31:27.635Z,100328.13
2022-10-14T00:32:08.525Z,100357.66
2022-10-14T00:32:48.593Z,100340.13
2022-10-14T00:33:29.534Z,100346.72
2022-10-14T00:34:12.984Z,100350.91
2022-10-14T00:34:52.554Z,100345.25
2022-10-14T00:35:32.582Z,100337.41
2022-10-14T00:36:14.513Z,100325.75
2022-10-14T00:36:54.573Z,100333.13
2022-10-14T00:37:35.524Z,100328.56
2022-10-14T00:38:15.589Z,100336.19
2022-10-14T00:38:55.544Z,100336.28
2022-10-14T00:39:35.597Z,100323.28
2022-10-14T00:40:16.615Z,100336.88
2022-10-14T00:40:56.597Z,100329.63
2022-10-14T00:41:40.508Z,100329.06
2022-10-14T00:42:21.577Z,100333.94
2022-10-14T00:43:01.509Z,100345.47
2022-10-14T00:44:07.634Z,100334.91
2022-10-14T00:44:50.521Z,100343.47
2022-10-14T00:45:31.560Z,100333.53
2022-10-14T00:46:05.585Z,100343.47
2022-10-14T00:46:55.512Z,100322.66
2022-10-14T00:47:29.609Z,100334.66
2022-10-14T00:48:16.496Z,100336.38
2022-10-14T00:48:50.581Z,100338.09
2022-10-14T00:49:43.509Z,100339.59
2022-10-14T00:50:19.602Z,100335.19
2022-10-14T00:51:01.545Z,100325.56
2022-10-14T00:51:42.587Z,100329.03
2022-10-14T00:52:28.505Z,100336.88
2022-10-14T00:53:08.569Z,100330.84
2022-10-14T00:53:50.514Z,100330.63
2022-10-14T00:54:36.581Z,100328.78
2022-10-14T00:55:24.508Z,100320.91
2022-10-14T00:56:11.521Z,100330.50
2022-10-14T00:57:06.521Z,100323.88
2022-10-14T00:58:00.517Z,100335.66
2022-10-14T00:58:54.516Z,100328.53
2022-10-14T00:59:48.493Z,100328.41
2022-10-14T01:00:42.533Z,100334.53
2022-10-14T01:01:29.528Z,100322.88
2022-10-14T01:02:03.562Z,100309.03
2022-10-14T01:02:51.498Z,100324.59
2022-10-14T01:03:28.580Z,100315.03
2022-10-14T01:04:15.503Z,100316.41
2022-10-14T01:04:49.579Z,100303.97
2022-10-14T01:05:43.513Z,100319.69
2022-10-14T01:07:01.529Z,100320.31
2022-10-14T01:08:28.499Z,100317.75
2022-10-14T01:09:30.484Z,100324.00
2022-10-14T01:10:49.524Z,100305.97
2022-10-14T01:12:28.524Z,100325.44
2022-10-14T01:13:53.481Z,100312.59
2022-10-14T01:14:58.474Z,100322.88
2022-10-14T01:16:01.473Z,100326.03
2022-10-14T01:17:13.495Z,100315.75
2022-10-14T01:18:49.515Z,100315.75
2022-10-14T01:20:05.105Z,100318.94
2022-10-14T01:21:01.488Z,100318.06
2022-10-14T01:22:12.023Z,100316.94
2022-10-14T01:23:47.604Z,100316.94
2022-10-14T01:24:51.521Z,100314.25
2022-10-14T01:25:37.576Z,100310.44
2022-10-14T01:26:31.475Z,100323.81
2022-10-14T01:27:42.544Z,100316.69
2022-10-14T01:28:49.551Z,100325.78
2022-10-14T01:30:17.504Z,100323.19
2022-10-14T01:31:21.474Z,100311.16
2022-10-14T01:32:24.761Z,100315.00
2022-10-14T01:33:33.485Z,100305.91
2022-10-14T01:34:38.452Z,100312.72
2022-10-14T01:36:20.534Z,100314.09
2022-10-14T01:37:21.477Z,100309.06
2022-10-14T01:38:22.489Z,100314.47
2022-10-14T01:39:37.477Z,100312.34
2022-10-14T01:40:50.456Z,100308.66
2022-10-14T01:41:42.641Z,100312.81
2022-10-14T01:42:26.547Z,100294.56
2022-10-14T01:43:14.483Z,100307.41
2022-10-14T01:43:50.769Z,100295.56
2022-10-14T01:44:39.469Z,100306.56
2022-10-14T01:45:19.541Z,100294.56
2022-10-14T01:46:09.454Z,100308.13
2022-10-14T01:46:53.514Z,100302.63
2022-10-14T01:47:49.457Z,100297.47
2022-10-14T01:48:48.477Z,100300.16
2022-10-14T01:49:57.465Z,100294.03
2022-10-14T01:50:52.494Z,100295.38
2022-10-14T01:52:01.485Z,100290.09
2022-10-14T01:53:11.461Z,100308.59
2022-10-14T01:54:14.448Z,100297.78
2022-10-14T01:55:12.473Z,100296.75
2022-10-14T01:56:08.461Z,100292.06
2022-10-14T01:57:03.480Z,100290.22
2022-10-14T01:57:58.450Z,100296.22
2022-10-14T01:58:53.441Z,100289.81
2022-10-14T01:59:49.445Z,100291.53
2022-10-14T02:00:43.437Z,100281.13
2022-10-14T02:01:38.526Z,100282.44
2022-10-14T02:02:31.490Z,100269.06
2022-10-14T02:03:05.574Z,100273.63
2022-10-14T02:03:54.441Z,100276.78
2022-10-14T02:04:29.517Z,100272.38
2022-10-14T02:05:52.451Z,100281.03
2022-10-14T02:06:40.505Z,100263.41
2022-10-14T02:08:03.458Z,100281.03
2022-10-14T02:09:14.770Z,100269.28
2022-10-14T02:10:10.445Z,100266.97
2022-10-14T02:11:09.553Z,100285.06
2022-10-14T02:12:45.431Z,100283.63
2022-10-14T02:14:11.591Z,100288.19
2022-10-14T02:15:35.436Z,100292.72
2022-10-14T02:16:55.437Z,100291.47
2022-10-14T02:18:41.422Z,100272.22
2022-10-14T02:19:51.448Z,100279.94
2022-10-14T02:20:37.400Z,100294.63
2022-10-14T02:21:33.445Z,100278.69
2022-10-14T02:22:22.852Z,100288.22
2022-10-14T02:23:30.417Z,100292.22
2022-10-14T02:24:29.508Z,100271.09
2022-10-14T02:25:19.455Z,100290.81
2022-10-14T02:26:01.499Z,100285.91
2022-10-14T02:26:42.416Z,100289.22
2022-10-14T02:27:25.485Z,100296.34
2022-10-14T02:28:07.437Z,100284.69
2022-10-14T02:28:49.658Z,100291.41
2022-10-14T02:29:30.428Z,100274.53
2022-10-14T02:30:11.497Z,100283.81
2022-10-14T02:31:00.435Z,100287.97
2022-10-14T02:31:42.507Z,100281.41
2022-10-14T02:32:25.414Z,100291.06
2022-10-14T02:33:07.473Z,100287.50
2022-10-14T02:33:50.393Z,100280.94
2022-10-14T02:34:33.519Z,100290.94
2022-10-14T02:35:15.426Z,100282.81
2022-10-14T02:35:56.495Z,100270.59
2022-10-14T02:36:37.486Z,100283.69
2022-10-14T02:37:19.967Z,100277.69
2022-10-14T02:38:01.419Z,100283.56
2022-10-14T02:38:42.469Z,100285.84
2022-10-14T02:39:29.406Z,100282.28
2022-10-14T02:40:21.527Z,100271.69
2022-10-14T02:41:01.422Z,100287.38
2022-10-14T02:41:49.503Z,100289.69
2022-10-14T02:42:23.567Z,100291.13
2022-10-14T02:43:10.408Z,100277.41
2022-10-14T02:43:45.768Z,100291.41
2022-10-14T02:44:32.416Z,100285.00
2022-10-14T02:45:07.673Z,100288.44
2022-10-14T02:45:56.401Z,100275.72
2022-10-14T02:46:30.137Z,100292.38
2022-10-14T02:47:10.413Z,100279.88
2022-10-14T02:47:44.489Z,100270.06
2022-10-14T02:48:18.104Z,100280.59
2022-10-14T02:48:59.406Z,100286.59
2022-10-14T02:49:33.456Z,100282.19
2022-10-14T02:50:09.194Z,100292.38
2022-10-14T02:50:50.389Z,100269.47
2022-10-14T02:51:24.478Z,100278.72
2022-10-14T02:51:58.179Z,100286.31
2022-10-14T02:52:38.421Z,100283.50
2022-10-14T02:53:12.468Z,100282.75
2022-10-14T02:53:46.108Z,100281.03
2022-10-14T02:54:27.404Z,100289.00
2022-10-14T02:55:01.499Z,100288.91
2022-10-14T02:55:35.141Z,100288.00
2022-10-14T02:56:16.408Z,100286.91
2022-10-14T02:56:50.459Z,100269.22
2022-10-14T02:57:24.125Z,100282.03
2022-10-14T02:58:04.408Z,100273.47
2022-10-14T02:58:38.441Z,100281.50
2022-10-14T02:59:12.223Z,100284.88
2022-10-14T02:59:53.380Z,100290.16
2022-10-14T03:00:27.468Z,100288.44
2022-10-14T03:01:01.353Z,100292.00
2022-10-14T03:01:42.437Z,100286.28
2022-10-14T03:02:16.618Z,100299.09
2022-10-14T03:02:50.086Z,100302.19
2022-10-14T03:03:30.412Z,100297.09
2022-10-14T03:04:04.475Z,100289.81
2022-10-14T03:04:38.114Z,100296.78
2022-10-14T03:05:19.374Z,100287.69
2022-10-14T03:05:53.464Z,100288.56
2022-10-14T03:06:28.466Z,100284.03
2022-10-14T03:07:09.389Z,100288.16
2022-10-14T03:07:43.462Z,100282.56
2022-10-14T03:08:17.662Z,100287.44
2022-10-14T03:08:58.399Z,100289.16
2022-10-14T03:09:32.471Z,100276.31
2022-10-14T03:10:06.356Z,100286.00
2022-10-14T03:10:47.365Z,100271.44
2022-10-14T03:11:21.438Z,100280.41
2022-10-14T03:11:55.077Z,100292.53
2022-10-14T03:12:36.365Z,100287.38
2022-10-14T03:13:10.483Z,100276.50
2022-10-14T03:13:44.109Z,100285.53
2022-10-14T03:14:24.406Z,100291.94
2022-10-14T03:14:58.535Z,100286.19
2022-10-14T03:15:33.088Z,100289.63
2022-10-14T03:16:14.372Z,100286.44
2022-10-14T03:16:48.442Z,100297.00
2022-10-14T03:17:22.094Z,100287.59
2022-10-14T03:18:02.357Z,100299.72
2022-10-14T03:18:36.424Z,100292.47
2022-10-14T03:19:10.132Z,100293.16
2022-10-14T03:19:50.405Z,100290.16
2022-10-14T03:20:24.468Z,100296.63
2022-10-14T03:21:11.368Z,100294.03
2022-10-14T03:21:45.522Z,100294.13
2022-10-14T03:22:33.371Z,100304.13
2022-10-14T03:23:07.445Z,100285.59
2022-10-14T03:23:54.357Z,100289.91
2022-10-14T03:24:28.433Z,100273.38
2022-10-14T03:25:16.387Z,100279.63
2022-10-14T03:25:53.420Z,100288.72
2022-10-14T03:26:40.367Z,100282.97
2022-10-14T03:27:14.463Z,100280.41
2022-10-14T03:28:01.365Z,100276.69
2022-10-14T03:28:35.517Z,100285.56
2022-10-14T03:29:22.367Z,100288.13
2022-10-14T03:29:56.437Z,100276.13
2022-10-14T03:30:37.394Z,100281.84
2022-10-14T03:31:17.449Z,100270.97
2022-10-14T03:31:58.359Z,100271.97
2022-10-14T03:32:38.432Z,100287.66
2022-10-14T03:33:20.503Z,100282.06
2022-10-14T03:34:01.440Z,100287.66
2022-10-14T03:34:41.356Z,100283.47
2022-10-14T03:35:21.453Z,100295.50
2022-10-14T03:36:01.388Z,100285.72
2022-10-14T03:36:41.425Z,100271.16
2022-10-14T03:37:22.352Z,100285.28
2022-10-14T03:38:03.838Z,100279.13
2022-10-14T03:38:43.345Z,100282.31
2022-10-14T03:39:23.472Z,100266.00
2022-10-14T03:40:03.362Z,100278.63
2022-10-14T03:40:43.429Z,100274.47
2022-10-14T03:41:23.378Z,100289.41
2022-10-14T03:42:03.437Z,100286.84
2022-10-14T03:42:44.345Z,100277.75
2022-10-14T03:43:24.430Z,100273.72
2022-10-14T03:44:04.336Z,100268.19
2022-10-14T03:44:44.922Z,100284.00
2022-10-14T03:45:25.346Z,100288.41
2022-10-14T03:46:05.422Z,100277.44
2022-10-14T03:46:45.455Z,100263.97
2022-10-14T03:47:25.443Z,100277.56
2022-10-14T03:48:06.349Z,100286.72
2022-10-14T03:48:46.457Z,100283.16
2022-10-14T03:49:27.338Z,100271.63
2022-10-14T03:50:07.442Z,100281.31
2022-10-14T03:50:47.335Z,100279.59
2022-10-14T03:51:27.483Z,100277.03
2022-10-14T03:52:07.371Z,100277.19
2022-10-14T03:52:49.192Z,100279.75
2022-10-14T03:53:33.360Z,100266.00
2022-10-14T03:54:13.514Z,100279.34
2022-10-14T03:54:53.341Z,100284.34
2022-10-14T03:55:33.438Z,100264.91
2022-10-14T03:56:14.325Z,100276.28
2022-10-14T03:56:56.413Z,100280.31
2022-10-14T03:57:36.371Z,100277.75
2022-10-14T03:58:18.433Z,100274.06
2022-10-14T03:58:59.355Z,100266.94
2022-10-14T03:59:39.411Z,100283.78
2022-10-14T04:00:20.341Z,100278.88
2022-10-14T04:01:00.489Z,100279.41
2022-10-14T04:01:40.395Z,100275.72
2022-10-14T04:02:20.694Z,100264.59
2022-10-14T04:03:00.353Z,100279.41
2022-10-14T04:03:41.368Z,100281.88
2022-10-14T04:04:22.318Z,100279.09
2022-10-14T04:05:02.377Z,100269.88
2022-10-14T04:05:43.332Z,100267.88
2022-10-14T04:06:38.361Z,100280.19
2022-10-14T04:07:32.326Z,100269.00
2022-10-14T04:08:19.359Z,100280.19
2022-10-14T04:08:53.403Z,100269.63
2022-10-14T04:09:40.331Z,100266.69
2022-10-14T04:10:15.373Z,100259.31
2022-10-14T04:11:03.309Z,100278.69
2022-10-14T04:11:37.368Z,100276.97
2022-10-14T04:12:24.532Z,100267.41
2022-10-14T04:13:00.424Z,100271.84
2022-10-14T04:13:41.357Z,100271.38
2022-10-14T04:14:21.377Z,100255.69
2022-10-14T04:15:03.313Z,100272.09
2022-10-14T04:15:43.416Z,100268.41
2022-10-14T04:16:24.313Z,100267.81
2022-10-14T04:17:04.377Z,100253.53
2022-10-14T04:17:44.297Z,100253.84
2022-10-14T04:18:24.392Z,100262.28
2022-10-14T04:19:05.366Z,100268.69
2022-10-14T04:19:45.434Z,100261.81
2022-10-14T04:20:26.321Z,100271.84
2022-10-14T04:21:20.378Z,100267.56
2022-10-14T04:22:00.302Z,100269.53
2022-10-14T04:22:40.398Z,100267.22
2022-10-14T04:23:20.298Z,100270.38
2022-10-14T04:24:03.694Z,100266.97
2022-10-14T04:24:46.333Z,100253.97
2022-10-14T04:25:26.380Z,100270.38
2022-10-14T04:26:11.322Z,100260.09
2022-10-14T04:26:52.091Z,100271.38
2022-10-14T04:27:32.297Z,100270.38
2022-10-14T04:28:12.369Z,100273.22
2022-10-14T04:28:53.362Z,100256.41
2022-10-14T04:29:33.361Z,100252.72
2022-10-14T04:30:14.330Z,100253.09
2022-10-14T04:30:54.361Z,100256.78
2022-10-14T04:31:35.308Z,100266.97
2022-10-14T04:32:15.393Z,100267.56
2022-10-14T04:32:55.306Z,100257.28
2022-10-14T04:33:35.553Z,100256.41
2022-10-14T04:34:18.314Z,100263.28
2022-10-14T04:34:58.433Z,100254.56
2022-10-14T04:35:38.351Z,100247.59
2022-10-14T04:36:18.388Z,100263.84
2022-10-14T04:37:02.280Z,100257.88
2022-10-14T04:37:42.345Z,100259.59
2022-10-14T04:38:22.295Z,100258.47
2022-10-14T04:39:02.406Z,100262.53
2022-10-14T04:39:42.305Z,100244.75
2022-10-14T04:40:25.624Z,100257.28
2022-10-14T04:41:06.316Z,100250.31
2022-10-14T04:41:46.360Z,100253.56
2022-10-14T04:42:27.276Z,100260.09
2022-10-14T04:43:07.368Z,100253.97
2022-10-14T04:43:47.272Z,100252.38
2022-10-14T04:44:27.416Z,100248.38
2022-10-14T04:45:08.300Z,100256.94
2022-10-14T04:45:49.372Z,100264.38
2022-10-14T04:46:29.323Z,100259.50
2022-10-14T04:47:23.302Z,100260.09
2022-10-14T04:48:17.285Z,100254.94
2022-10-14T04:49:11.283Z,100258.41
2022-10-14T04:50:05.284Z,100254.72
2022-10-14T04:50:59.307Z,100254.72
2022-10-14T04:51:46.392Z,100243.56
2022-10-14T04:52:20.736Z,100261.56
2022-10-14T04:53:13.231Z,100261.56
2022-10-14T04:53:47.340Z,100262.28
2022-10-14T04:54:34.276Z,100253.72
2022-10-14T04:55:08.359Z,100253.56
2022-10-14T04:55:56.260Z,100259.31
2022-10-14T04:56:30.327Z,100249.78
2022-10-14T04:57:11.291Z,100242.91
2022-10-14T04:57:51.396Z,100248.50
2022-10-14T04:58:31.295Z,100259.31
2022-10-14T04:59:13.035Z,100244.63
2022-10-14T04:59:53.277Z,100256.63
2022-10-14T05:00:33.392Z,100244.38
2022-10-14T05:01:13.270Z,100249.41
2022-10-14T05:01:53.374Z,100246.56
2022-10-14T05:02:33.278Z,100231.94
2022-10-14T05:03:13.378Z,100230.41
2022-10-14T05:03:55.266Z,100243.38
2022-10-14T05:04:35.387Z,100246.81
2022-10-14T05:05:16.270Z,100243.13
2022-10-14T05:05:57.334Z,100242.41
2022-10-14T05:06:38.267Z,100236.53
2022-10-14T05:07:18.414Z,100239.56
2022-10-14T05:07:58.312Z,100233.59
2022-10-14T05:08:38.340Z,100228.56
2022-10-14T05:09:19.277Z,100232.59
2022-10-14T05:09:59.371Z,100254.06
2022-10-14T05:10:40.270Z,100237.38
2022-10-14T05:11:20.361Z,100238.47
2022-10-14T05:12:00.277Z,100230.88
2022-10-14T05:12:40.333Z,100223.78
2022-10-14T05:13:20.304Z,100245.44
2022-10-14T05:14:00.335Z,100240.31
2022-10-14T05:14:41.255Z,100232.31
2022-10-14T05:15:21.566Z,100243.59
2022-10-14T05:16:01.244Z,100235.16
2022-10-14T05:16:41.427Z,100234.31
2022-10-14T05:17:22.278Z,100235.41
2022-10-14T05:18:02.353Z,100228.66
2022-10-14T05:18:42.293Z,100241.66
2022-10-14T05:19:22.325Z,100229.50
2022-10-14T05:20:03.253Z,100237.22
2022-10-14T05:20:43.337Z,100238.47
2022-10-14T05:21:23.247Z,100237.47
2022-10-14T05:22:04.315Z,100232.91
2022-10-14T05:22:45.235Z,100232.06
2022-10-14T05:23:25.376Z,100233.78
2022-10-14T05:24:05.284Z,100239.94
2022-10-14T05:24:45.516Z,100227.19
2022-10-14T05:25:26.253Z,100232.22
2022-10-14T05:26:06.960Z,100228.03
2022-10-14T05:26:47.253Z,100226.91
2022-10-14T05:27:27.675Z,100236.34
2022-10-14T05:28:07.249Z,100235.47
2022-10-14T05:28:47.379Z,100229.50
2022-10-14T05:29:27.273Z,100236.25
2022-10-14T05:30:07.352Z,100235.47
2022-10-14T05:30:49.245Z,100231.72
2022-10-14T05:31:29.361Z,100234.53
2022-10-14T05:32:10.249Z,100228.66
2022-10-14T05:32:50.321Z,100237.97
2022-10-14T05:33:31.238Z,100241.38
2022-10-14T05:34:11.313Z,100211.84
2022-10-14T05:34:51.272Z,100228.38
2022-10-14T05:35:57.074Z,100232.28
2022-10-14T05:36:32.237Z,100244.09
2022-10-14T05:37:12.316Z,100223.84
2022-10-14T05:37:52.240Z,100224.97
2022-10-14T05:38:33.556Z,100232.44
2022-10-14T05:39:18.237Z,100225.69
2022-10-14T05:40:05.271Z,100235.00
2022-10-14T05:41:09.227Z,100233.03
2022-10-14T05:42:03.284Z,100231.06
2022-10-14T05:42:57.220Z,100234.47
2022-10-14T05:43:51.238Z,100232.66
2022-10-14T05:44:45.245Z,100222.25
2022-10-14T05:45:25.260Z,100232.50
2022-10-14T05:46:19.237Z,100215.53
2022-10-14T05:47:13.216Z,100211.97
2022-10-14T05:48:07.208Z,100233.03
2022-10-14T05:49:01.213Z,100235.00
2022-10-14T05:49:55.279Z,100233.28
2022-10-14T05:50:42.257Z,100227.03
2022-10-14T05:51:16.610Z,100236.44
2022-10-14T05:52:03.230Z,100235.00
2022-10-14T05:52:37.301Z,100244.31
2022-10-14T05:53:24.213Z,100242.84
2022-10-14T05:53:58.276Z,100254.88
2022-10-14T05:54:45.239Z,100246.34
2022-10-14T05:55:19.270Z,100253.97
2022-10-14T05:56:15.588Z,100248.03
2022-10-14T05:56:49.505Z,100251.09
2022-10-14T05:57:36.228Z,100257.81
2022-10-14T05:58:10.319Z,100256.50
2022-10-14T05:58:57.219Z,100250.25
2022-10-14T05:59:33.255Z,100254.03
2022-10-14T06:00:25.602Z,100246.94
2022-10-14T06:01:00.478Z,100240.81
2022-10-14T06:01:43.232Z,100243.84
2022-10-14T06:02:55.363Z,100248.63
2022-10-14T06:03:36.225Z,100237.09
2022-10-14T06:04:26.271Z,100249.69
2022-10-14T06:05:06.209Z,100249.81
2022-10-14T06:05:46.356Z,100246.38
2022-10-14T06:06:29.123Z,100245.88
2022-10-14T06:07:10.253Z,100240.03
2022-10-14T06:07:50.269Z,100248.19
2022-10-14T06:08:31.192Z,100245.00
2022-10-14T06:09:11.702Z,100231.03
2022-10-14T06:09:52.224Z,100242.91
2022-10-14T06:10:32.353Z,100255.75
2022-10-14T06:11:13.227Z,100258.06
2022-10-14T06:11:53.273Z,100249.75
2022-10-14T06:12:34.222Z,100246.28
2022-10-14T06:13:14.319Z,100234.91
2022-10-14T06:13:54.208Z,100247.63
2022-10-14T06:14:35.537Z,100251.81
2022-10-14T06:15:16.193Z,100251.19
2022-10-14T06:15:56.293Z,100251.94
2022-10-14T06:16:36.214Z,100239.28
2022-10-14T06:17:17.719Z,100253.84
2022-10-14T06:17:58.238Z,100249.66
2022-10-14T06:18:39.261Z,100249.66
2022-10-14T06:19:19.213Z,100253.06
2022-10-14T06:19:59.245Z,100231.66
2022-10-14T06:20:39.179Z,100259.56
2022-10-14T06:21:19.249Z,100246.53
2022-10-14T06:21:59.181Z,100246.28
2022-10-14T06:22:39.268Z,100253.00
2022-10-14T06:23:19.247Z,100239.03
2022-10-14T06:23:59.282Z,100246.88
2022-10-14T06:24:39.204Z,100232.78
2022-10-14T06:25:20.335Z,100239.75
2022-10-14T06:26:01.189Z,100238.78
2022-10-14T06:26:41.473Z,100247.44
2022-10-14T06:27:21.177Z,100248.50
2022-10-14T06:28:02.247Z,100244.50
2022-10-14T06:28:43.272Z,100231.09
2022-10-14T06:29:26.355Z,100255.94
2022-10-14T06:30:06.200Z,100247.59
2022-10-14T06:30:47.249Z,100247.91
2022-10-14T06:31:31.363Z,100252.16
2022-10-14T06:32:14.274Z,100233.38
2022-10-14T06:32:54.180Z,100247.06
2022-10-14T06:33:37.322Z,100252.47
2022-10-14T06:34:18.208Z,100247.22
2022-10-14T06:34:58.241Z,100254.19
2022-10-14T06:35:38.193Z,100244.81
2022-10-14T06:36:19.255Z,100249.69
2022-10-14T06:37:02.242Z,100252.00
2022-10-14T06:37:44.250Z,100254.09
2022-10-14T06:38:24.179Z,100249.88
2022-10-14T06:39:05.276Z,100257.44
2022-10-14T06:39:45.236Z,100251.63
2022-10-14T06:40:25.302Z,100237.22
2022-10-14T06:41:05.169Z,100255.03
2022-10-14T06:41:46.300Z,100245.78
2022-10-14T06:42:26.640Z,100239.81
2022-10-14T06:43:07.290Z,100248.94
2022-10-14T06:43:47.200Z,100251.50
2022-10-14T06:44:28.253Z,100254.09
2022-10-14T06:45:08.204Z,100251.84
2022-10-14T06:45:48.298Z,100244.97
2022-10-14T06:46:28.175Z,100253.25
2022-10-14T06:47:09.246Z,100260.41
2022-10-14T06:47:50.175Z,100246.88
2022-10-14T06:48:30.249Z,100250.97
2022-10-14T06:49:10.177Z,100253.84
2022-10-14T06:49:50.231Z,100257.53
2022-10-14T06:50:30.204Z,100263.09
2022-10-14T06:51:10.293Z,100246.97
2022-10-14T06:51:50.163Z,100245.00
2022-10-14T06:52:31.246Z,100258.53
2022-10-14T06:53:11.157Z,100239.91
2022-10-14T06:53:51.208Z,100229.34
2022-10-14T06:54:34.440Z,100252.59
2022-10-14T06:55:17.238Z,100245.63
2022-10-14T06:56:07.254Z,100242.53
2022-10-14T06:56:47.272Z,100249.94
2022-10-14T06:57:27.182Z,100233.25
2022-10-14T06:58:08.255Z,100249.50
2022-10-14T06:58:48.168Z,100226.00
2022-10-14T06:59:29.238Z,100250.53
2022-10-14T07:00:11.142Z,100244.09
2022-10-14T07:00:51.245Z,100236.69
2022-10-14T07:01:31.329Z,100230.69
2022-10-14T07:02:11.261Z,100233.69
2022-10-14T07:02:54.001Z,100246.94
2022-10-14T07:03:36.425Z,100248.81
2022-10-14T07:04:16.151Z,100249.22
2022-10-14T07:04:56.245Z,100247.66
2022-10-14T07:05:43.188Z,100244.50
2022-10-14T07:06:17.211Z,100233.97
2022-10-14T07:06:58.195Z,100245.94
2022-10-14T07:07:39.249Z,100251.50
2022-10-14T07:08:20.151Z,100253.19
2022-10-14T07:09:00.379Z,100252.91
2022-10-14T07:09:40.154Z,100239.28
2022-10-14T07:10:20.207Z,100248.56
2022-10-14T07:11:00.145Z,100247.56
2022-10-14T07:11:40.254Z,100257.00
2022-10-14T07:12:20.587Z,100253.25
2022-10-14T07:13:01.393Z,100247.84
2022-10-14T07:13:42.141Z,100247.28
2022-10-14T07:14:22.220Z,100245.72
2022-10-14T07:15:02.149Z,100240.91
2022-10-14T07:15:45.221Z,100260.72
2022-10-14T07:16:25.156Z,100256.75
2022-10-14T07:17:05.205Z,100237.63
2022-10-14T07:17:46.177Z,100246.38
2022-10-14T07:18:26.200Z,100239.97
2022-10-14T07:19:06.138Z,100234.28
2022-10-14T07:19:46.206Z,100234.28
2022-10-14T07:20:27.140Z,100244.25
2022-10-14T07:21:11.252Z,100239.41
2022-10-14T07:21:53.165Z,100247.81
2022-10-14T07:22:38.679Z,100239.81
2022-10-14T07:23:20.165Z,100237.81
2022-10-14T07:24:00.210Z,100241.13
2022-10-14T07:24:41.133Z,100244.25
2022-10-14T07:25:21.380Z,100247.22
2022-10-14T07:26:07.125Z,100230.56
2022-10-14T07:26:47.177Z,100249.81
2022-10-14T07:27:27.146Z,100251.41
2022-10-14T07:28:07.210Z,100256.25
2022-10-14T07:28:48.182Z,100246.97
2022-10-14T07:29:28.197Z,100253.09
2022-10-14T07:30:10.656Z,100253.38
2022-10-14T07:31:14.539Z,100256.25
2022-10-14T07:31:54.129Z,100256.25
2022-10-14T07:32:34.190Z,100252.69
2022-10-14T07:33:15.117Z,100246.53
2022-10-14T07:34:02.199Z,100267.06
2022-10-14T07:34:56.147Z,100260.38
2022-10-14T07:35:52.131Z,100260.66
2022-10-14T07:36:46.132Z,100247.13
2022-10-14T07:37:40.130Z,100260.38
2022-10-14T07:38:34.129Z,100263.94
2022-10-14T07:39:21.141Z,100265.06
2022-10-14T07:39:55.197Z,100263.19
2022-10-14T07:40:42.133Z,100253.38
2022-10-14T07:41:21.257Z,100253.78
2022-10-14T07:42:08.184Z,100255.66
2022-10-14T07:42:42.507Z,100245.66
2022-10-14T07:43:29.111Z,100251.94
2022-10-14T07:44:09.028Z,100255.06
2022-10-14T07:44:49.156Z,100247.09
2022-10-14T07:45:35.061Z,100248.63
2022-10-14T07:46:15.101Z,100245.97
2022-10-14T07:46:55.203Z,100242.53
2022-10-14T07:47:35.143Z,100248.50
2022-10-14T07:48:19.584Z,100253.94
2022-10-14T07:49:11.109Z,100253.22
2022-10-14T07:49:58.146Z,100256.91
2022-10-14T07:50:52.141Z,100245.81
2022-10-14T07:51:47.113Z,100256.50
2022-10-14T07:52:41.129Z,100245.50
2022-10-14T07:53:36.127Z,100261.59
2022-10-14T07:54:39.164Z,100262.19
2022-10-14T07:55:19.152Z,100245.34
2022-10-14T07:56:00.261Z,100256.28
2022-10-14T07:56:41.112Z,100245.06
2022-10-14T07:57:21.540Z,100243.63
2022-10-14T07:58:03.104Z,100247.47
2022-10-14T07:58:44.572Z,100253.75
2022-10-14T07:59:27.096Z,100248.16
2022-10-14T08:00:07.220Z,100246.31
2022-10-14T08:00:47.148Z,100251.13
2022-10-14T08:01:27.241Z,100244.59
2022-10-14T08:02:07.166Z,100236.75
2022-10-14T08:02:47.181Z,100250.44
2022-10-14T08:03:29.104Z,100256.44
2022-10-14T08:04:09.166Z,100247.56
2022-10-14T08:04:50.101Z,100253.84
2022-10-14T08:05:38.177Z,100251.28
2022-10-14T08:06:20.209Z,100242.47
2022-10-14T08:07:01.265Z,100238.91
2022-10-14T08:07:42.097Z,100257.28
2022-10-14T08:08:24.258Z,100247.84
2022-10-14T08:09:05.098Z,100232.03
2022-10-14T08:09:45.194Z,100251.13
2022-10-14T08:10:25.085Z,100249.25
2022-10-14T08:11:14.252Z,100254.41
2022-10-14T08:11:55.116Z,100238.72
2022-10-14T08:12:35.182Z,100258.09
2022-10-14T08:13:15.092Z,100238.31
2022-10-14T08:13:56.183Z,100258.50
2022-10-14T08:14:37.093Z,100255.53
2022-10-14T08:15:17.202Z,100241.88
2022-10-14T08:15:57.096Z,100248.69
2022-10-14T08:16:42.212Z,100255.38
2022-10-14T08:17:23.123Z,100250.53
2022-10-14T08:18:03.227Z,100230.44
2022-10-14T08:18:43.069Z,100245.84
2022-10-14T08:19:23.363Z,100248.41
2022-10-14T08:20:06.111Z,100237.56
2022-10-14T08:20:46.168Z,100252.78
2022-10-14T08:21:28.097Z,100243.06
2022-10-14T08:22:08.155Z,100245.50
2022-10-14T08:22:48.100Z,100246.59
2022-10-14T08:23:30.389Z,100242.34